Pagrindinis puslapis
METAR-TAF:

METAR-TAF

Oro uostai :

Mandalajus, Mianmaras

platuma: 21-59N, ilguma: 096-06E, Aukštis: 74 m

Dabartinis oras

Ataskaita buvo paskelbta 11 valandos ir 19 minutes, ne 11:30 UTC
Temperatūra 28°C
Drėgmė 45%
Slėgis 1009 hPa
Matomumas: 6000 m

METAR: VYMD 261130Z CALM 6000 NSC 28/15 Q1009 NOSIG

Laikas: 05:19 (22:49 UTC)

Prognozė

Ataskaita buvo paskelbta 5 valandos ir 49 minutes, ne 17:00 UTC
Prognozė galioja nuo 26 metu 18 UTC su 27 metu 18 UTC
Vėjas 4 kt iš Šiaurės Vakarų
Matomumas: 6000 m
Mažai debesys ne aukštis 2000 ft
Laikinai
nuo 26 metu 18 UTC su 26 metu 24 UTC
Vėjas 3 kt iš Šiaurės Vakarų
Matomumas: 5000 m
rūkana

TAF: VYMD 261700Z 2618/2718 32004KT 6000 FEW020 TEMPO 2618/2624 32003KT 5000 BR

Orai ataskaitas ir orų prognozės (METAR, TAF).

turimą stotys yra geltonos ir raudonos taškus žemėlapyje.

Perkelti pele per norėdami pamatyti stoties vardą.

Tada spustelėkite, norėdami matyti oro stebėjimo ir prognozės.

Norėdami pakeisti žemėlapį: spustelėkite ant žalios mygtukų su juodo kryžiaus žemyn,; žalią mygtuką su brūkšneliu, jei norite nutolinti; arba žalių rodyklių gretimoms žemėlapius.


METAR-TAF: